Time;durP1;ratioP1;P1;durP2;ratioP2;P2;SDS_P1;SDS_P2;PMS_P1;PMS_P2;Temp;Humidity;BMP_temperature;BMP_pressure;BME280_temperature;BME280_humidity;BME280_pressure;Samples;Min_cycle;Max_cycle;Signal;HPM_P1;HPM_P2
2022/11/09 00:01:37;;;;;;;6.03;2.15;;;13.20;99.90;;;;;;5065305;28;20217;-76
2022/11/09 00:04:04;;;;;;;3.35;1.88;;;13.20;99.90;;;;;;5059594;28;20294;-76
2022/11/09 00:06:31;;;;;;;3.38;2.30;;;13.20;99.90;;;;;;5049329;28;20216;-76
2022/11/09 00:08:56;;;;;;;3.63;1.80;;;13.20;99.90;;;;;;5067900;28;20570;-76
2022/11/09 00:11:22;;;;;;;3.42;2.28;;;13.20;99.90;;;;;;5046936;28;20200;-76
2022/11/09 00:13:48;;;;;;;3.53;2.17;;;13.20;99.90;;;;;;5063885;28;20689;-76
2022/11/09 00:16:17;;;;;;;3.50;2.33;;;13.20;99.90;;;;;;5060828;28;20203;-76
2022/11/09 00:18:46;;;;;;;7.13;1.83;;;13.20;99.90;;;;;;5065789;28;20218;-76
2022/11/09 00:21:16;;;;;;;3.97;2.17;;;13.20;99.90;;;;;;5066783;28;20201;-76
2022/11/09 00:23:43;;;;;;;2.92;1.80;;;13.20;99.90;;;;;;5067752;28;20730;-77
2022/11/09 00:26:10;;;;;;;3.47;2.15;;;13.20;99.90;;;;;;5066867;28;20203;-77
2022/11/09 00:28:36;;;;;;;5.28;2.40;;;13.20;99.90;;;;;;5049766;28;20211;-76
2022/11/09 00:31:09;;;;;;;4.25;2.63;;;13.20;99.90;;;;;;5064223;28;20289;-76
2022/11/09 00:33:34;;;;;;;5.90;2.42;;;13.20;99.90;;;;;;5048988;28;20211;-77
2022/11/09 00:36:11;;;;;;;4.85;2.42;;;13.20;99.90;;;;;;5064874;28;20184;-77
2022/11/09 00:38:41;;;;;;;2.35;2.10;;;13.20;99.90;;;;;;5069431;28;20207;-76
2022/11/09 00:41:09;;;;;;;2.85;2.00;;;13.20;99.90;;;;;;5061199;28;20219;-75
2022/11/09 00:43:34;;;;;;;4.82;2.20;;;13.10;99.90;;;;;;5065926;28;20214;-76
2022/11/09 00:46:00;;;;;;;3.45;1.85;;;13.20;99.90;;;;;;5071461;28;20209;-75
2022/11/09 00:48:26;;;;;;;3.58;1.92;;;13.20;99.90;;;;;;5053290;28;20187;-76
2022/11/09 00:50:53;;;;;;;3.00;1.80;;;13.20;99.90;;;;;;5053188;28;20194;-76
2022/11/09 00:53:20;;;;;;;2.83;2.20;;;13.20;99.90;;;;;;5064713;28;20226;-75
2022/11/09 00:55:57;;;;;;;3.38;2.33;;;13.20;99.90;;;;;;5108339;22;20230;-74
2022/11/09 00:58:24;;;;;;;4.40;2.20;;;13.10;99.90;;;;;;5085246;28;20222;-74
2022/11/09 01:00:50;;;;;;;4.27;2.47;;;13.20;99.90;;;;;;5089487;28;20234;-74
2022/11/09 01:03:16;;;;;;;5.10;2.35;;;13.10;99.90;;;;;;5089886;28;20175;-74
2022/11/09 01:05:42;;;;;;;3.60;1.90;;;13.10;99.90;;;;;;5081259;28;20213;-74
2022/11/09 01:08:08;;;;;;;3.40;2.00;;;13.10;99.90;;;;;;5080521;28;20219;-74
2022/11/09 01:10:34;;;;;;;3.20;2.17;;;13.10;99.90;;;;;;5070251;28;20217;-74
2022/11/09 01:12:59;;;;;;;2.80;2.10;;;13.10;99.90;;;;;;5066398;28;20208;-74
2022/11/09 01:15:25;;;;;;;5.47;2.23;;;13.00;99.90;;;;;;5082518;28;20761;-74
2022/11/09 01:17:51;;;;;;;3.67;1.90;;;13.10;99.90;;;;;;5081701;28;20596;-75
2022/11/09 01:20:17;;;;;;;2.77;2.50;;;13.00;99.90;;;;;;5083877;28;20724;-74
2022/11/09 01:22:42;;;;;;;3.22;2.03;;;13.00;99.90;;;;;;5068955;28;20206;-75
2022/11/09 01:25:08;;;;;;;3.10;2.20;;;13.00;99.90;;;;;;5064566;28;20272;-74
2022/11/09 01:27:34;;;;;;;3.10;2.10;;;13.00;99.90;;;;;;5061812;28;20214;-74
2022/11/09 01:30:00;;;;;;;5.03;2.20;;;13.00;99.90;;;;;;5081887;28;20187;-75
2022/11/09 01:32:26;;;;;;;4.53;2.20;;;12.90;99.90;;;;;;5070225;28;20222;-74
2022/11/09 01:34:51;;;;;;;2.65;1.60;;;12.90;99.90;;;;;;5082758;28;20240;-74
2022/11/09 01:37:17;;;;;;;3.43;1.90;;;12.90;99.90;;;;;;5064265;28;20253;-74
2022/11/09 01:39:42;;;;;;;6.00;2.20;;;12.90;99.90;;;;;;5080187;28;20213;-74
2022/11/09 01:42:08;;;;;;;5.37;2.23;;;12.80;99.90;;;;;;5065511;28;20237;-74
2022/11/09 01:44:37;;;;;;;3.90;2.17;;;12.80;99.90;;;;;;5083200;28;20692;-74
2022/11/09 01:47:20;;;;;;;3.33;2.40;;;12.80;99.90;;;;;;5079606;28;20320;-74
2022/11/09 01:49:48;;;;;;;7.10;2.40;;;12.80;99.90;;;;;;5080606;28;20210;-74
2022/11/09 01:52:20;;;;;;;3.03;2.23;;;12.80;99.90;;;;;;5064189;28;20250;-74
2022/11/09 01:54:50;;;;;;;3.83;2.17;;;12.80;99.90;;;;;;5080380;28;20716;-74
2022/11/09 01:57:26;;;;;;;4.60;2.35;;;12.80;99.90;;;;;;5081005;28;20163;-74
2022/11/09 01:59:58;;;;;;;4.23;2.73;;;12.70;99.90;;;;;;5079867;28;20724;-74
2022/11/09 02:02:23;;;;;;;2.77;2.10;;;12.70;99.90;;;;;;5063358;28;20214;-74
2022/11/09 02:04:56;;;;;;;3.77;2.40;;;12.70;99.90;;;;;;5082912;28;20218;-74
2022/11/09 02:07:23;;;;;;;2.60;1.90;;;12.70;99.90;;;;;;5062232;28;20214;-74
2022/11/09 02:10:16;;;;;;;5.40;2.00;;;12.70;99.90;;;;;;5081169;28;20287;-74
2022/11/09 02:12:43;;;;;;;4.47;2.00;;;12.70;99.90;;;;;;5081964;28;20275;-74
2022/11/09 02:15:10;;;;;;;7.30;2.10;;;12.70;99.90;;;;;;5061546;28;20195;-74
2022/11/09 02:17:37;;;;;;;3.33;2.53;;;12.70;99.90;;;;;;5081502;28;20683;-74
2022/11/09 02:20:14;;;;;;;2.20;1.70;;;12.70;99.90;;;;;;5078981;28;20236;-72
2022/11/09 02:22:40;;;;;;;3.73;2.10;;;12.70;99.90;;;;;;5082435;28;20259;-74
2022/11/09 02:25:07;;;;;;;2.33;2.10;;;12.60;99.90;;;;;;5068457;28;20233;-73
2022/11/09 02:27:34;;;;;;;3.03;1.90;;;12.60;99.90;;;;;;5066005;28;20245;-75
2022/11/09 02:30:01;;;;;;;2.80;1.97;;;12.60;99.90;;;;;;5065125;28;20179;-74
2022/11/09 02:32:28;;;;;;;2.40;2.20;;;12.60;99.90;;;;;;5082600;28;20203;-74
2022/11/09 02:34:54;;;;;;;3.90;2.23;;;12.60;99.90;;;;;;5078497;28;20232;-74
2022/11/09 02:37:33;;;;;;;3.87;2.20;;;12.50;99.90;;;;;;5081063;28;20207;-74
2022/11/09 02:40:01;;;;;;;3.43;2.27;;;12.50;99.90;;;;;;5078247;28;20203;-73
2022/11/09 02:42:27;;;;;;;6.27;2.30;;;12.50;99.90;;;;;;5062872;28;20584;-74
2022/11/09 02:44:58;;;;;;;5.67;2.40;;;12.50;99.90;;;;;;5080119;28;20237;-73
2022/11/09 02:47:24;;;;;;;3.97;2.00;;;12.40;99.90;;;;;;5080048;28;20231;-75
2022/11/09 02:49:50;;;;;;;3.20;2.20;;;12.40;99.90;;;;;;5080500;28;20271;-74
2022/11/09 02:52:17;;;;;;;3.33;1.90;;;12.40;99.90;;;;;;5081038;28;20225;-74
2022/11/09 02:54:42;;;;;;;2.80;2.33;;;12.40;99.90;;;;;;5067128;28;20246;-74
2022/11/09 02:57:08;;;;;;;4.07;2.17;;;12.40;99.90;;;;;;5079110;28;20199;-74
2022/11/09 02:59:33;;;;;;;3.33;2.37;;;12.30;99.90;;;;;;5069797;28;20236;-74
2022/11/09 03:01:59;;;;;;;5.77;2.30;;;12.30;99.90;;;;;;5078161;28;20592;-74
2022/11/09 03:04:24;;;;;;;3.60;2.20;;;12.30;99.90;;;;;;5066834;28;20589;-74
2022/11/09 03:06:50;;;;;;;5.67;2.63;;;12.30;99.90;;;;;;5081285;28;20226;-73
2022/11/09 03:09:15;;;;;;;3.70;2.13;;;12.30;99.90;;;;;;5078380;28;20683;-73
2022/11/09 03:11:42;;;;;;;4.20;2.20;;;12.30;99.90;;;;;;5081492;28;20178;-74
2022/11/09 03:14:10;;;;;;;3.47;2.23;;;12.30;99.90;;;;;;5078261;28;20218;-74
2022/11/09 03:16:37;;;;;;;6.27;2.20;;;12.30;99.90;;;;;;5060477;28;20214;-74
2022/11/09 03:19:03;;;;;;;4.37;1.90;;;12.40;99.90;;;;;;5060652;28;20238;-72
2022/11/09 03:21:29;;;;;;;4.17;2.00;;;12.40;99.90;;;;;;5078370;28;20245;-74
2022/11/09 03:23:54;;;;;;;3.27;2.20;;;12.50;99.90;;;;;;5080173;28;20273;-74
2022/11/09 03:26:21;;;;;;;3.90;1.90;;;12.50;99.90;;;;;;5060311;28;20746;-74
2022/11/09 03:28:46;;;;;;;5.57;2.30;;;12.50;99.90;;;;;;5081719;28;20213;-74
2022/11/09 03:31:12;;;;;;;3.23;1.90;;;12.60;99.90;;;;;;5060770;28;20556;-74
2022/11/09 03:33:38;;;;;;;3.63;2.00;;;12.60;99.90;;;;;;5069069;28;20707;-74
2022/11/09 03:36:04;;;;;;;3.40;2.13;;;12.60;99.90;;;;;;5058794;28;20198;-74
2022/11/09 03:38:30;;;;;;;2.67;1.97;;;12.60;99.90;;;;;;5066464;28;20232;-74
2022/11/09 03:40:57;;;;;;;4.23;2.07;;;12.60;99.90;;;;;;5077860;28;20302;-75
2022/11/09 03:43:23;;;;;;;3.13;2.30;;;12.60;99.90;;;;;;5079878;28;20699;-74
2022/11/09 03:45:48;;;;;;;3.67;2.30;;;12.60;99.90;;;;;;5079396;28;20226;-75
2022/11/09 03:48:14;;;;;;;3.03;2.27;;;12.60;99.90;;;;;;5077840;28;20179;-75
2022/11/09 03:50:40;;;;;;;4.37;1.90;;;12.60;99.90;;;;;;5081613;28;20182;-74
2022/11/09 03:53:08;;;;;;;3.57;1.90;;;12.60;99.90;;;;;;5082122;28;20225;-74
2022/11/09 03:55:34;;;;;;;4.47;2.40;;;12.70;99.90;;;;;;5078822;28;20219;-74
2022/11/09 03:57:59;;;;;;;5.10;2.17;;;12.70;99.90;;;;;;5078686;28;20214;-74
2022/11/09 04:00:25;;;;;;;3.00;1.90;;;12.70;99.90;;;;;;5081327;28;20736;-75
2022/11/09 04:02:51;;;;;;;2.30;1.93;;;12.70;99.90;;;;;;5079497;28;20167;-74
2022/11/09 04:05:17;;;;;;;3.20;2.23;;;12.70;99.90;;;;;;5079427;28;20282;-75
2022/11/09 04:07:51;;;;;;;3.23;1.80;;;12.70;99.90;;;;;;5068084;28;20202;-75
2022/11/09 04:10:18;;;;;;;4.13;2.13;;;12.70;99.90;;;;;;5078580;28;20251;-74
2022/11/09 04:12:44;;;;;;;2.70;1.90;;;12.70;99.90;;;;;;5079987;28;20604;-74
2022/11/09 04:15:10;;;;;;;2.63;1.93;;;12.70;99.90;;;;;;5077259;28;20202;-74
2022/11/09 04:17:35;;;;;;;3.17;2.20;;;12.70;99.90;;;;;;5065292;28;20175;-75
2022/11/09 04:20:01;;;;;;;4.47;1.97;;;12.60;99.90;;;;;;5083162;28;20226;-75
2022/11/09 04:22:26;;;;;;;2.77;2.17;;;12.60;99.90;;;;;;5082099;28;20709;-74
2022/11/09 04:24:52;;;;;;;4.10;2.73;;;12.60;99.90;;;;;;5082901;28;20213;-74
2022/11/09 04:27:18;;;;;;;4.60;2.53;;;12.60;99.90;;;;;;5063232;28;20182;-75
2022/11/09 04:29:43;;;;;;;3.67;2.50;;;12.60;99.90;;;;;;5081483;28;20189;-74
2022/11/09 04:32:09;;;;;;;2.97;2.30;;;12.70;99.90;;;;;;5082035;28;20203;-75
2022/11/09 04:34:34;;;;;;;4.20;2.07;;;12.60;99.90;;;;;;5072420;28;20213;-74
2022/11/09 04:37:00;;;;;;;5.67;2.00;;;12.70;99.90;;;;;;5082594;28;20227;-74
2022/11/09 04:39:25;;;;;;;4.13;2.30;;;12.70;99.90;;;;;;5065374;28;20175;-74
2022/11/09 04:41:51;;;;;;;4.43;2.50;;;12.70;99.90;;;;;;5081517;28;20599;-75
2022/11/09 04:44:16;;;;;;;2.83;2.27;;;12.70;99.90;;;;;;5070373;28;20316;-75
2022/11/09 04:46:42;;;;;;;3.37;2.13;;;12.70;99.90;;;;;;5080566;28;20198;-74
2022/11/09 04:49:07;;;;;;;4.77;2.47;;;12.70;99.90;;;;;;5067550;28;20207;-74
2022/11/09 04:51:33;;;;;;;5.43;1.90;;;12.70;99.90;;;;;;5084532;28;20212;-74
2022/11/09 04:53:58;;;;;;;2.67;1.83;;;12.70;99.90;;;;;;5081608;28;20179;-74
2022/11/09 04:56:24;;;;;;;3.17;2.13;;;12.70;99.90;;;;;;5081739;28;20211;-74
2022/11/09 04:58:50;;;;;;;3.53;2.00;;;12.70;99.90;;;;;;5082932;28;20588;-74
2022/11/09 05:01:15;;;;;;;6.57;1.93;;;12.70;99.90;;;;;;5083053;28;20224;-74
2022/11/09 05:03:41;;;;;;;4.50;2.30;;;12.70;99.90;;;;;;5069543;28;20210;-74
2022/11/09 05:08:54;;;;;;;3.20;2.00;;;12.70;99.90;;;;;;5081081;28;20256;-75
2022/11/09 05:11:20;;;;;;;2.93;2.00;;;12.70;99.90;;;;;;5081485;28;20599;-74
2022/11/09 05:13:46;;;;;;;3.77;2.00;;;12.70;99.90;;;;;;5082096;28;20836;-74
2022/11/09 05:16:11;;;;;;;4.23;2.43;;;12.70;99.90;;;;;;5080060;28;20293;-74
2022/11/09 05:18:37;;;;;;;3.80;2.10;;;12.70;99.90;;;;;;5083916;28;20285;-74
2022/11/09 05:21:03;;;;;;;3.63;2.20;;;12.70;99.90;;;;;;5081118;28;20195;-73
2022/11/09 05:26:13;;;;;;;3.20;2.03;;;12.70;99.90;;;;;;5081414;28;20222;-75
2022/11/09 05:28:38;;;;;;;4.27;2.27;;;12.70;99.90;;;;;;5081943;28;20210;-74
2022/11/09 05:31:05;;;;;;;2.97;2.00;;;12.70;99.90;;;;;;5079524;28;20212;-74
2022/11/09 05:33:30;;;;;;;4.63;2.60;;;12.70;99.90;;;;;;5065632;28;20257;-75
2022/11/09 05:35:56;;;;;;;4.05;2.13;;;12.70;99.90;;;;;;5082994;28;20700;-74
2022/11/09 05:38:23;;;;;;;8.17;2.57;;;12.70;99.90;;;;;;5082965;28;20207;-75
2022/11/09 05:40:50;;;;;;;3.50;2.50;;;12.70;99.90;;;;;;5082036;28;20717;-74
2022/11/09 05:43:16;;;;;;;3.53;2.13;;;12.70;99.90;;;;;;5079995;28;20293;-74
2022/11/09 05:45:41;;;;;;;2.73;2.10;;;12.70;99.90;;;;;;5067796;28;20293;-75
2022/11/09 05:48:07;;;;;;;4.53;2.60;;;12.70;99.90;;;;;;5082167;28;20175;-74
2022/11/09 05:50:33;;;;;;;3.20;2.53;;;12.70;99.90;;;;;;5084230;28;20629;-74
2022/11/09 05:53:00;;;;;;;4.30;2.43;;;12.70;99.90;;;;;;5066639;28;20757;-74
2022/11/09 05:55:26;;;;;;;4.30;2.40;;;12.70;99.90;;;;;;5066462;28;20214;-73
2022/11/09 05:57:52;;;;;;;4.45;2.40;;;12.70;99.90;;;;;;5080441;28;20210;-73
2022/11/09 06:00:18;;;;;;;4.63;2.27;;;12.70;99.90;;;;;;5063847;28;20170;-73
2022/11/09 06:02:43;;;;;;;6.23;2.77;;;12.70;99.90;;;;;;5081241;28;20174;-74
2022/11/09 06:05:09;;;;;;;4.23;2.40;;;12.70;99.90;;;;;;5079578;28;20219;-73
2022/11/09 06:07:34;;;;;;;2.50;2.17;;;12.70;99.90;;;;;;5082777;28;20206;-74
2022/11/09 06:10:00;;;;;;;3.80;2.43;;;12.80;99.90;;;;;;5063203;28;20219;-73
2022/11/09 06:12:26;;;;;;;3.45;2.35;;;12.80;99.90;;;;;;5082021;28;20189;-73
2022/11/09 06:14:51;;;;;;;6.13;2.47;;;12.80;99.90;;;;;;5084352;28;20214;-73
2022/11/09 06:17:17;;;;;;;4.47;2.40;;;12.80;99.90;;;;;;5079875;28;20234;-73
2022/11/09 06:19:43;;;;;;;7.72;2.70;;;12.80;99.90;;;;;;5081875;28;20198;-73
2022/11/09 06:22:08;;;;;;;3.13;2.35;;;12.90;99.90;;;;;;5080935;28;20309;-73
2022/11/09 06:24:34;;;;;;;4.10;2.47;;;12.90;99.90;;;;;;5079999;28;20214;-73
2022/11/09 06:27:00;;;;;;;3.17;2.10;;;12.90;99.90;;;;;;5080059;28;20197;-73
2022/11/09 06:29:25;;;;;;;5.03;2.70;;;12.90;99.90;;;;;;5079208;28;20233;-74
2022/11/09 06:31:51;;;;;;;5.70;2.60;;;12.90;99.90;;;;;;5081928;28;20245;-73
2022/11/09 06:34:17;;;;;;;7.70;2.80;;;12.90;99.90;;;;;;5081110;28;20207;-73
2022/11/09 06:36:43;;;;;;;4.78;2.25;;;12.90;99.90;;;;;;5079704;28;20198;-74
2022/11/09 06:39:08;;;;;;;4.45;2.53;;;12.90;99.90;;;;;;5063968;28;20657;-73
2022/11/09 06:41:34;;;;;;;5.00;2.50;;;12.90;99.90;;;;;;5081723;28;20206;-73
2022/11/09 06:44:00;;;;;;;5.13;2.50;;;12.90;99.90;;;;;;5078627;28;20255;-73
2022/11/09 06:46:25;;;;;;;4.93;2.50;;;12.90;99.90;;;;;;5082785;28;20198;-73
2022/11/09 06:48:51;;;;;;;6.93;2.60;;;12.90;99.90;;;;;;5079291;28;20681;-73
2022/11/09 06:51:17;;;;;;;3.63;2.30;;;12.80;99.90;;;;;;5079067;28;20186;-73
2022/11/09 06:53:43;;;;;;;6.33;2.90;;;12.90;99.90;;;;;;5067824;28;20261;-73
2022/11/09 06:56:09;;;;;;;3.90;2.67;;;12.90;99.90;;;;;;5068623;28;20226;-74
2022/11/09 06:58:35;;;;;;;5.80;3.00;;;12.80;99.90;;;;;;5081554;28;20210;-73
2022/11/09 07:01:07;;;;;;;5.82;2.90;;;12.90;99.90;;;;;;5067381;28;20222;-73
2022/11/09 07:03:33;;;;;;;5.78;2.83;;;12.80;99.90;;;;;;5082833;28;20706;-73
2022/11/09 07:06:03;;;;;;;10.97;2.80;;;12.80;99.90;;;;;;5080175;28;20216;-73
2022/11/09 07:08:29;;;;;;;6.90;2.97;;;12.80;99.90;;;;;;5081930;28;20206;-73
2022/11/09 07:10:54;;;;;;;5.00;2.50;;;12.80;99.90;;;;;;5078051;28;20213;-74
2022/11/09 07:13:21;;;;;;;3.55;2.67;;;12.80;99.90;;;;;;5080320;28;20226;-74
2022/11/09 07:15:53;;;;;;;5.57;2.77;;;12.70;99.90;;;;;;5082495;28;20243;-73
2022/11/09 07:18:18;;;;;;;6.93;2.87;;;12.70;99.90;;;;;;5063382;28;20213;-73
2022/11/09 07:20:44;;;;;;;5.47;2.73;;;12.70;99.90;;;;;;5080980;28;20233;-74
2022/11/09 07:23:09;;;;;;;4.67;2.60;;;12.70;99.90;;;;;;5060968;28;20234;-74
2022/11/09 07:25:35;;;;;;;6.57;2.97;;;12.60;99.90;;;;;;5068609;28;20245;-74
2022/11/09 07:28:08;;;;;;;9.37;2.90;;;12.60;99.90;;;;;;5078416;28;20653;-74
2022/11/09 07:30:35;;;;;;;5.70;2.97;;;12.50;99.90;;;;;;5081823;28;20202;-74
2022/11/09 07:33:01;;;;;;;6.87;3.10;;;12.50;99.90;;;;;;5079506;28;20217;-74
2022/11/09 07:35:27;;;;;;;3.47;2.70;;;12.50;99.90;;;;;;5081223;28;20221;-73
2022/11/09 07:37:53;;;;;;;5.60;2.87;;;12.40;99.90;;;;;;5059980;28;20625;-72
2022/11/09 07:40:19;;;;;;;7.40;2.87;;;12.50;99.90;;;;;;5079200;28;20290;-73
2022/11/09 07:42:44;;;;;;;5.23;2.90;;;12.50;99.90;;;;;;5079603;28;20275;-73
2022/11/09 07:45:10;;;;;;;5.50;3.20;;;12.50;99.90;;;;;;5079301;28;20696;-73
2022/11/09 07:47:36;;;;;;;4.63;3.37;;;12.50;99.90;;;;;;5082086;28;20173;-73
2022/11/09 07:50:02;;;;;;;6.47;3.47;;;12.50;99.90;;;;;;5077042;28;20218;-73
2022/11/09 07:52:28;;;;;;;6.57;3.73;;;12.50;99.90;;;;;;5080686;28;20314;-73
2022/11/09 07:54:53;;;;;;;11.73;4.20;;;12.50;99.90;;;;;;5068986;28;20331;-74
2022/11/09 07:57:19;;;;;;;7.20;3.50;;;12.60;99.90;;;;;;5081750;28;20193;-73
2022/11/09 07:59:44;;;;;;;5.77;3.60;;;12.60;99.90;;;;;;5085391;28;20177;-73
2022/11/09 08:02:10;;;;;;;6.47;3.90;;;12.60;99.90;;;;;;5065687;28;20213;-74
2022/11/09 08:04:35;;;;;;;5.80;3.47;;;12.60;99.90;;;;;;5086196;28;20705;-73
2022/11/09 08:07:01;;;;;;;4.73;3.43;;;12.60;99.90;;;;;;5083408;28;20206;-73
2022/11/09 08:09:27;;;;;;;4.87;3.10;;;12.60;99.90;;;;;;5084693;28;20231;-74
2022/11/09 08:11:53;;;;;;;6.53;3.00;;;12.70;99.90;;;;;;5071362;28;20265;-74
2022/11/09 08:14:18;;;;;;;6.70;3.43;;;12.60;99.90;;;;;;5083156;28;20700;-73
2022/11/09 08:16:44;;;;;;;5.70;3.40;;;12.60;99.90;;;;;;5069795;28;20740;-73
2022/11/09 08:19:09;;;;;;;5.17;2.70;;;12.60;99.90;;;;;;5081742;28;20207;-72
2022/11/09 08:21:36;;;;;;;3.90;3.00;;;12.60;99.90;;;;;;5084637;28;20241;-74
2022/11/09 08:24:02;;;;;;;8.30;3.53;;;12.60;99.90;;;;;;5081647;28;20236;-74
2022/11/09 08:26:28;;;;;;;6.90;3.27;;;12.50;99.90;;;;;;5083545;28;20211;-73
2022/11/09 08:28:54;;;;;;;5.80;2.90;;;12.60;99.90;;;;;;5082041;28;20211;-73
2022/11/09 08:31:20;;;;;;;5.10;3.17;;;12.60;99.90;;;;;;5081472;28;20207;-75
2022/11/09 08:33:46;;;;;;;5.50;3.20;;;12.60;99.90;;;;;;5069051;28;20385;-75
2022/11/09 08:36:14;;;;;;;7.63;3.43;;;12.70;99.90;;;;;;5082378;28;20199;-75
2022/11/09 08:38:40;;;;;;;4.07;2.73;;;12.60;99.90;;;;;;5071987;28;20550;-74
2022/11/09 08:41:06;;;;;;;4.90;2.90;;;12.70;99.90;;;;;;5066357;28;20217;-74
2022/11/09 08:43:33;;;;;;;6.37;4.13;;;12.70;99.90;;;;;;5083691;28;20285;-74
2022/11/09 08:45:58;;;;;;;6.27;4.50;;;12.70;99.90;;;;;;5080935;28;20238;-74
2022/11/09 08:48:24;;;;;;;8.37;3.53;;;12.60;99.90;;;;;;5083378;28;20588;-74
2022/11/09 08:50:54;;;;;;;6.33;3.67;;;12.70;99.90;;;;;;5070154;28;20187;-74
2022/11/09 08:53:21;;;;;;;5.67;3.73;;;12.70;99.90;;;;;;5081673;28;20210;-74
2022/11/09 08:55:46;;;;;;;4.40;3.37;;;12.70;99.90;;;;;;5082410;28;20228;-74
2022/11/09 08:58:12;;;;;;;4.20;2.70;;;12.80;99.90;;;;;;5063380;28;20215;-74
2022/11/09 09:00:37;;;;;;;7.37;3.93;;;12.70;99.90;;;;;;5083760;28;20210;-74
2022/11/09 09:03:04;;;;;;;4.13;3.07;;;12.70;99.90;;;;;;5084567;28;20208;-72
2022/11/09 09:05:30;;;;;;;7.77;3.73;;;12.70;99.90;;;;;;5080880;28;20716;-74
2022/11/09 09:07:58;;;;;;;5.87;4.03;;;12.70;99.90;;;;;;5068459;28;20397;-75
2022/11/09 09:10:24;;;;;;;6.37;3.73;;;12.80;99.90;;;;;;5062019;28;20207;-73
2022/11/09 09:12:50;;;;;;;8.73;3.87;;;12.70;99.90;;;;;;5084100;28;20209;-74
2022/11/09 09:15:15;;;;;;;8.87;4.27;;;12.80;99.90;;;;;;5067435;28;20191;-75
2022/11/09 09:17:41;;;;;;;8.57;3.50;;;12.80;99.90;;;;;;5070297;28;20624;-75
2022/11/09 09:20:07;;;;;;;7.20;4.10;;;12.80;99.90;;;;;;5079643;28;20213;-75
2022/11/09 09:22:32;;;;;;;7.37;4.20;;;12.90;99.90;;;;;;5065296;28;20219;-73
2022/11/09 09:24:58;;;;;;;7.13;4.23;;;13.00;99.90;;;;;;5080522;28;20207;-74
2022/11/09 09:27:23;;;;;;;7.73;4.00;;;13.00;99.90;;;;;;5066070;28;20175;-73
2022/11/09 09:29:49;;;;;;;7.27;4.23;;;13.10;99.90;;;;;;5081609;28;20297;-74
2022/11/09 09:32:15;;;;;;;5.73;3.37;;;13.20;99.90;;;;;;5083005;28;20199;-74
2022/11/09 09:34:40;;;;;;;7.63;3.63;;;13.30;99.90;;;;;;5086251;28;20214;-74
2022/11/09 09:37:06;;;;;;;7.10;4.10;;;13.70;99.90;;;;;;5080350;28;20203;-73
2022/11/09 09:39:31;;;;;;;5.27;3.73;;;14.00;99.90;;;;;;5079529;28;20203;-74
2022/11/09 09:42:01;;;;;;;8.52;3.70;;;14.00;99.90;;;;;;5080809;28;20210;-74
2022/11/09 09:44:47;;;;;;;6.35;3.83;;;14.20;99.90;;;;;;5083265;28;20627;-74
2022/11/09 09:47:23;;;;;;;4.57;3.33;;;14.20;99.90;;;;;;5079069;28;20203;-74
2022/11/09 09:49:55;;;;;;;11.52;4.90;;;14.10;99.90;;;;;;5080525;28;20296;-74
2022/11/09 09:52:40;;;;;;;18.98;10.23;;;14.00;99.90;;;;;;5062315;28;20268;-75
2022/11/09 09:55:23;;;;;;;6.57;4.40;;;13.90;99.90;;;;;;5081253;28;20246;-75
2022/11/09 09:58:10;;;;;;;7.03;4.75;;;13.80;99.90;;;;;;5080383;28;20230;-74
2022/11/09 10:00:37;;;;;;;8.02;4.25;;;13.80;99.90;;;;;;5081247;28;20264;-73
2022/11/09 10:03:04;;;;;;;8.10;5.40;;;14.00;99.90;;;;;;5082163;28;20181;-74
2022/11/09 10:05:57;;;;;;;5.35;3.72;;;13.90;99.90;;;;;;5079714;28;20723;-73
2022/11/09 10:08:31;;;;;;;8.63;4.20;;;14.00;99.90;;;;;;5071374;28;20206;-75
2022/11/09 10:11:19;;;;;;;7.30;4.50;;;14.00;99.90;;;;;;5078578;28;20996;-73
2022/11/09 10:13:54;;;;;;;7.65;3.55;;;14.00;99.90;;;;;;5079076;28;20684;-75
2022/11/09 10:16:35;;;;;;;7.30;4.05;;;14.10;99.90;;;;;;5084650;28;20234;-74
2022/11/09 10:19:31;;;;;;;4.55;3.40;;;13.90;99.90;;;;;;5078882;28;20215;-75
2022/11/09 10:22:16;;;;;;;6.13;3.78;;;13.90;99.90;;;;;;5079429;28;20227;-73
2022/11/09 10:24:49;;;;;;;9.32;3.50;;;13.90;99.90;;;;;;5081261;28;20214;-73
2022/11/09 10:27:24;;;;;;;5.40;4.18;;;14.10;99.90;;;;;;5082558;28;20194;-75
2022/11/09 10:29:49;;;;;;;8.43;3.67;;;14.00;99.90;;;;;;5083685;28;20177;-76
2022/11/09 10:32:18;;;;;;;6.22;3.90;;;13.90;99.90;;;;;;5079113;28;20202;-75
2022/11/09 10:34:59;;;;;;;9.10;4.38;;;13.80;99.90;;;;;;5061937;28;20248;-75
2022/11/09 10:37:43;;;;;;;7.57;4.22;;;13.80;99.90;;;;;;5044498;28;20580;-74
2022/11/09 10:40:31;;;;;;;6.15;3.80;;;14.00;99.90;;;;;;5027261;28;20213;-74
2022/11/09 10:42:59;;;;;;;5.88;4.30;;;14.30;99.90;;;;;;5018809;28;20213;-73
2022/11/09 10:45:30;;;;;;;9.38;3.90;;;14.70;99.90;;;;;;4999268;28;20209;-74
2022/11/09 10:47:57;;;;;;;4.75;3.45;;;14.70;99.90;;;;;;4998098;28;20200;-73
2022/11/09 10:50:57;;;;;;;6.22;2.95;;;14.90;99.90;;;;;;4997889;28;20282;-74
2022/11/09 10:53:25;;;;;;;4.90;3.05;;;15.10;99.90;;;;;;4999292;28;20221;-74
2022/11/09 10:55:51;;;;;;;6.93;3.70;;;15.40;99.90;;;;;;4995826;28;20213;-74
2022/11/09 10:58:34;;;;;;;5.10;3.15;;;15.30;99.90;;;;;;4997229;28;20292;-74
2022/11/09 11:01:04;;;;;;;4.82;3.67;;;15.10;99.90;;;;;;4992573;28;20214;-74
2022/11/09 11:03:34;;;;;;;4.45;3.28;;;15.10;99.90;;;;;;5001309;28;20205;-74
2022/11/09 11:06:22;;;;;;;5.47;3.28;;;15.20;99.90;;;;;;4995894;28;20206;-73
2022/11/09 11:09:04;;;;;;;5.63;3.20;;;15.30;99.90;;;;;;5029353;28;20260;-74
2022/11/09 11:11:34;;;;;;;5.85;2.97;;;15.30;99.90;;;;;;5014885;28;20208;-74
2022/11/09 11:14:33;;;;;;;4.82;2.97;;;15.20;99.90;;;;;;5017203;28;20205;-74
2022/11/09 11:16:59;;;;;;;4.63;3.15;;;15.40;99.90;;;;;;5014850;28;20212;-74
2022/11/09 11:19:44;;;;;;;6.97;2.80;;;15.60;99.90;;;;;;5018055;28;20598;-74
2022/11/09 11:22:13;;;;;;;4.82;3.03;;;15.60;99.90;;;;;;5014708;28;20209;-74
2022/11/09 11:24:56;;;;;;;4.05;2.53;;;15.90;99.90;;;;;;5015695;28;20220;-75
2022/11/09 11:27:50;;;;;;;4.38;2.47;;;15.90;99.90;;;;;;5014961;28;20174;-74
2022/11/09 11:30:21;;;;;;;5.25;2.92;;;15.70;99.90;;;;;;5015482;28;20165;-74
2022/11/09 11:32:47;;;;;;;4.90;2.63;;;15.60;99.90;;;;;;5015734;28;20542;-74
2022/11/09 11:35:27;;;;;;;5.38;3.08;;;15.70;99.90;;;;;;5014077;28;20235;-75
2022/11/09 11:37:56;;;;;;;4.25;2.65;;;15.70;99.90;;;;;;5015210;28;20243;-75
2022/11/09 11:40:24;;;;;;;3.35;2.40;;;15.80;99.90;;;;;;5014557;28;20205;-76
2022/11/09 11:43:41;;;;;;;5.57;2.55;;;15.70;99.90;;;;;;5015287;28;20212;-73
2022/11/09 11:46:33;;;;;;;5.40;3.08;;;15.70;99.90;;;;;;5016404;28;20224;-74
2022/11/09 11:49:21;;;;;;;3.88;2.40;;;15.60;99.90;;;;;;5000621;28;20256;-74
2022/11/09 11:51:55;;;;;;;4.45;2.60;;;15.50;99.90;;;;;;5002699;28;20207;-74
2022/11/09 11:54:52;;;;;;;6.68;2.95;;;15.60;99.90;;;;;;5001583;28;20289;-74
2022/11/09 11:57:49;;;;;;;5.35;2.38;;;15.70;99.90;;;;;;5003990;28;20368;-73
2022/11/09 12:00:19;;;;;;;4.20;2.35;;;15.70;99.90;;;;;;5007273;28;20181;-73
2022/11/09 12:03:06;;;;;;;4.82;1.98;;;15.80;99.90;;;;;;5004889;28;20199;-71
2022/11/09 12:05:55;;;;;;;3.88;2.58;;;15.70;99.90;;;;;;5001942;28;20225;-74
2022/11/09 12:08:40;;;;;;;3.40;2.58;;;15.70;99.90;;;;;;4998260;28;20214;-74
2022/11/09 12:11:18;;;;;;;3.08;2.10;;;15.80;99.90;;;;;;5000388;28;20210;-74
2022/11/09 12:13:58;;;;;;;3.08;2.30;;;16.00;99.90;;;;;;4999330;28;20204;-74
2022/11/09 12:16:52;;;;;;;3.08;2.50;;;16.00;99.90;;;;;;5003376;28;20237;-75
2022/11/09 12:19:29;;;;;;;3.08;1.92;;;15.90;99.90;;;;;;4996569;28;20251;-74
2022/11/09 12:22:07;;;;;;;2.97;1.88;;;15.80;99.90;;;;;;5000067;28;20213;-75
2022/11/09 12:24:42;;;;;;;2.90;1.85;;;15.70;99.90;;;;;;5004054;28;20939;-75
2022/11/09 12:27:17;;;;;;;5.70;2.42;;;15.70;99.90;;;;;;4999931;28;20182;-75
2022/11/09 12:30:02;;;;;;;4.80;2.22;;;15.50;99.90;;;;;;5001049;28;20231;-75
2022/11/09 12:32:52;;;;;;;2.67;2.30;;;15.50;99.90;;;;;;5002846;28;20287;-77
2022/11/09 12:35:24;;;;;;;3.53;1.95;;;15.60;99.90;;;;;;4999555;28;20228;-75
2022/11/09 12:38:13;;;;;;;4.13;2.15;;;15.70;99.90;;;;;;5002073;28;20216;-75
2022/11/09 12:40:47;;;;;;;4.75;2.00;;;15.80;99.90;;;;;;5002517;28;20743;-75
2022/11/09 12:43:28;;;;;;;3.55;2.00;;;15.90;99.90;;;;;;5004717;28;20221;-73
2022/11/09 12:45:55;;;;;;;4.65;2.78;;;16.00;99.90;;;;;;5003053;28;20220;-74
2022/11/09 12:48:23;;;;;;;5.05;2.00;;;16.00;99.90;;;;;;5000698;28;20178;-73
2022/11/09 12:50:50;;;;;;;3.58;1.90;;;15.90;99.90;;;;;;5002589;28;20292;-73
2022/11/09 12:53:16;;;;;;;3.00;1.67;;;15.90;99.90;;;;;;5007888;28;20228;-74
2022/11/09 12:55:54;;;;;;;5.72;2.35;;;15.90;99.90;;;;;;5000161;28;20213;-74
2022/11/09 12:58:23;;;;;;;5.25;2.10;;;15.70;99.90;;;;;;5008752;23;20842;-74
2022/11/09 13:00:51;;;;;;;2.65;1.75;;;15.80;99.90;;;;;;4987175;28;20775;-75
2022/11/09 13:03:24;;;;;;;2.85;1.98;;;15.80;99.90;;;;;;4991479;28;20189;-75